sensor_id;sensor_type;location;lat;lon;timestamp;pressure;altitude;pressure_sealevel;temperature;humidity
9893;BME280;4985;49.092;8.542;2023-04-15T00:02:13;98387.16;;;17.62;51.77
9893;BME280;4985;49.092;8.542;2023-04-15T00:04:41;98384.47;;;17.62;51.77
9893;BME280;4985;49.092;8.542;2023-04-15T00:07:07;98384.47;;;17.62;51.76
9893;BME280;4985;49.092;8.542;2023-04-15T00:09:34;98393.50;;;17.61;51.77
9893;BME280;4985;49.092;8.542;2023-04-15T00:12:01;98382.88;;;17.61;51.77
9893;BME280;4985;49.092;8.542;2023-04-15T00:14:27;98382.88;;;17.61;51.76
9893;BME280;4985;49.092;8.542;2023-04-15T00:16:55;98380.19;;;17.61;51.76
9893;BME280;4985;49.092;8.542;2023-04-15T00:19:21;98377.53;;;17.61;51.75
9893;BME280;4985;49.092;8.542;2023-04-15T00:21:49;98382.88;;;17.61;51.75
9893;BME280;4985;49.092;8.542;2023-04-15T00:24:16;98381.25;;;17.60;51.75
9893;BME280;4985;49.092;8.542;2023-04-15T00:26:42;98381.25;;;17.60;51.75
9893;BME280;4985;49.092;8.542;2023-04-15T00:29:09;98377.78;;;17.59;51.74
9893;BME280;4985;49.092;8.542;2023-04-15T00:31:35;98372.69;;;17.58;51.75
9893;BME280;4985;49.092;8.542;2023-04-15T00:34:02;98372.69;;;17.58;51.73
9893;BME280;4985;49.092;8.542;2023-04-15T00:36:29;98371.88;;;17.57;51.74
9893;BME280;4985;49.092;8.542;2023-04-15T00:38:57;98370.03;;;17.58;51.73
9893;BME280;4985;49.092;8.542;2023-04-15T00:41:24;98371.06;;;17.57;51.73
9893;BME280;4985;49.092;8.542;2023-04-15T00:43:50;98364.69;;;17.58;51.72
9893;BME280;4985;49.092;8.542;2023-04-15T00:46:17;98364.94;;;17.56;51.72
9893;BME280;4985;49.092;8.542;2023-04-15T00:48:46;98364.69;;;17.58;51.72
9893;BME280;4985;49.092;8.542;2023-04-15T00:51:13;98366.56;;;17.57;51.72
9893;BME280;4985;49.092;8.542;2023-04-15T00:53:39;98371.06;;;17.57;51.72
9893;BME280;4985;49.092;8.542;2023-04-15T00:56:07;98364.13;;;17.56;51.71
9893;BME280;4985;49.092;8.542;2023-04-15T00:58:34;98364.13;;;17.56;51.71
9893;BME280;4985;49.092;8.542;2023-04-15T01:01:01;98365.94;;;17.55;51.71
9893;BME280;4985;49.092;8.542;2023-04-15T01:03:28;98372.13;;;17.56;51.71
9893;BME280;4985;49.092;8.542;2023-04-15T01:05:55;98370.47;;;17.55;51.70
9893;BME280;4985;49.092;8.542;2023-04-15T01:08:25;98361.34;;;17.51;51.70
9893;BME280;4985;49.092;8.542;2023-04-15T01:10:53;98367.81;;;17.55;51.70
9893;BME280;4985;49.092;8.542;2023-04-15T01:13:22;98371.50;;;17.54;51.71
9893;BME280;4985;49.092;8.542;2023-04-15T01:15:49;98371.50;;;17.54;51.71
9893;BME280;4985;49.092;8.542;2023-04-15T01:18:16;98365.38;;;17.53;51.71
9893;BME280;4985;49.092;8.542;2023-04-15T01:20:43;98365.38;;;17.53;51.70
9893;BME280;4985;49.092;8.542;2023-04-15T01:23:10;98371.50;;;17.54;51.70
9893;BME280;4985;49.092;8.542;2023-04-15T01:25:40;98363.75;;;17.52;51.69
9893;BME280;4985;49.092;8.542;2023-04-15T01:28:07;98369.87;;;17.53;51.68
9893;BME280;4985;49.092;8.542;2023-04-15T01:30:34;98366.41;;;17.52;51.68
9893;BME280;4985;49.092;8.542;2023-04-15T01:33:00;98368.28;;;17.52;51.68
9893;BME280;4985;49.092;8.542;2023-04-15T01:35:27;98361.34;;;17.51;51.69
9893;BME280;4985;49.092;8.542;2023-04-15T01:38:04;98366.66;;;17.51;51.69
9893;BME280;4985;49.092;8.542;2023-04-15T01:40:31;98362.37;;;17.50;51.71
9893;BME280;4985;49.092;8.542;2023-04-15T01:43:00;98371.41;;;17.49;51.71
9893;BME280;4985;49.092;8.542;2023-04-15T01:45:26;98361.56;;;17.49;51.71
9893;BME280;4985;49.092;8.542;2023-04-15T01:47:53;98364.22;;;17.49;51.73
9893;BME280;4985;49.092;8.542;2023-04-15T01:50:20;98357.28;;;17.48;51.73
9893;BME280;4985;49.092;8.542;2023-04-15T01:52:46;98356.47;;;17.48;51.72
9893;BME280;4985;49.092;8.542;2023-04-15T01:55:13;98361.00;;;17.47;51.72
9893;BME280;4985;49.092;8.542;2023-04-15T01:57:40;98366.31;;;17.47;51.72
9893;BME280;4985;49.092;8.542;2023-04-15T02:00:09;98367.34;;;17.46;51.72
9893;BME280;4985;49.092;8.542;2023-04-15T02:02:35;98363.06;;;17.45;51.72
9893;BME280;4985;49.092;8.542;2023-04-15T02:05:03;98370.81;;;17.46;51.72
9893;BME280;4985;49.092;8.542;2023-04-15T02:07:29;98350.59;;;17.45;51.72
9893;BME280;4985;49.092;8.542;2023-04-15T02:09:57;98352.06;;;17.41;51.72
9893;BME280;4985;49.092;8.542;2023-04-15T02:12:23;98355.28;;;17.43;51.71
9893;BME280;4985;49.092;8.542;2023-04-15T02:14:50;98356.09;;;17.44;51.71
9893;BME280;4985;49.092;8.542;2023-04-15T02:17:18;98349.97;;;17.43;51.71
9893;BME280;4985;49.092;8.542;2023-04-15T02:19:44;98349.97;;;17.43;51.71
9893;BME280;4985;49.092;8.542;2023-04-15T02:22:12;98355.28;;;17.43;51.71
9893;BME280;4985;49.092;8.542;2023-04-15T02:24:42;98351.03;;;17.42;51.74
9893;BME280;4985;49.092;8.542;2023-04-15T02:27:10;98352.88;;;17.42;51.73
9893;BME280;4985;49.092;8.542;2023-04-15T02:29:36;98352.88;;;17.42;51.74
9893;BME280;4985;49.092;8.542;2023-04-15T02:32:03;98354.72;;;17.41;51.73
9893;BME280;4985;49.092;8.542;2023-04-15T02:34:31;98355.53;;;17.42;51.74
9893;BME280;4985;49.092;8.542;2023-04-15T02:36:58;98339.47;;;17.37;51.72
9893;BME280;4985;49.092;8.542;2023-04-15T02:39:25;98351.25;;;17.41;51.72
9893;BME280;4985;49.092;8.542;2023-04-15T02:41:52;98346.97;;;17.40;51.73
9893;BME280;4985;49.092;8.542;2023-04-15T02:44:18;98352.28;;;17.40;51.73
9893;BME280;4985;49.092;8.542;2023-04-15T02:46:46;98354.97;;;17.40;51.72
9893;BME280;4985;49.092;8.542;2023-04-15T02:49:15;98346.41;;;17.38;51.71
9893;BME280;4985;49.092;8.542;2023-04-15T02:51:43;98352.53;;;17.38;51.71
9893;BME280;4985;49.092;8.542;2023-04-15T02:54:11;98349.53;;;17.35;51.71
9893;BME280;4985;49.092;8.542;2023-04-15T02:56:39;98352.53;;;17.38;51.71
9893;BME280;4985;49.092;8.542;2023-04-15T02:59:05;98343.97;;;17.36;51.73
9893;BME280;4985;49.092;8.542;2023-04-15T03:01:32;98348.47;;;17.36;51.72
9893;BME280;4985;49.092;8.542;2023-04-15T03:03:58;98343.97;;;17.36;51.73
9893;BME280;4985;49.092;8.542;2023-04-15T03:06:25;98346.87;;;17.35;51.73
9893;BME280;4985;49.092;8.542;2023-04-15T03:08:53;98343.16;;;17.36;51.74
9893;BME280;4985;49.092;8.542;2023-04-15T03:11:21;98346.06;;;17.34;51.75
9893;BME280;4985;49.092;8.542;2023-04-15T03:13:47;98346.06;;;17.34;51.75
9893;BME280;4985;49.092;8.542;2023-04-15T03:16:14;98344.44;;;17.33;51.74
9893;BME280;4985;49.092;8.542;2023-04-15T03:18:41;98346.06;;;17.34;51.75
9893;BME280;4985;49.092;8.542;2023-04-15T03:21:07;98344.44;;;17.33;51.73
9893;BME280;4985;49.092;8.542;2023-04-15T03:23:34;98344.44;;;17.33;51.74
9893;BME280;4985;49.092;8.542;2023-04-15T03:26:02;98343.62;;;17.33;51.73
9893;BME280;4985;49.092;8.542;2023-04-15T03:28:30;98351.62;;;17.33;51.73
9893;BME280;4985;49.092;8.542;2023-04-15T03:30:57;98347.53;;;17.30;51.73
9893;BME280;4985;49.092;8.542;2023-04-15T03:33:23;98357.94;;;17.32;51.72
9893;BME280;4985;49.092;8.542;2023-04-15T03:35:50;98357.13;;;17.31;51.73
9893;BME280;4985;49.092;8.542;2023-04-15T03:38:17;98362.69;;;17.30;51.73
9893;BME280;4985;49.092;8.542;2023-04-15T03:40:45;98375.19;;;17.29;51.74
9893;BME280;4985;49.092;8.542;2023-04-15T03:43:13;98368.81;;;17.30;51.74
9893;BME280;4985;49.092;8.542;2023-04-15T03:45:40;98365.34;;;17.30;51.74
9893;BME280;4985;49.092;8.542;2023-04-15T03:48:07;98361.06;;;17.29;51.72
9893;BME280;4985;49.092;8.542;2023-04-15T03:50:34;98358.41;;;17.29;51.71
9893;BME280;4985;49.092;8.542;2023-04-15T03:53:00;98351.25;;;17.29;51.71
9893;BME280;4985;49.092;8.542;2023-04-15T03:55:27;98355.97;;;17.27;51.71
9893;BME280;4985;49.092;8.542;2023-04-15T03:57:53;98356.78;;;17.28;51.71
9893;BME280;4985;49.092;8.542;2023-04-15T04:00:21;98361.31;;;17.27;51.71
9893;BME280;4985;49.092;8.542;2023-04-15T04:02:48;98355.97;;;17.27;51.72
9893;BME280;4985;49.092;8.542;2023-04-15T04:05:14;98366.84;;;17.26;51.72
9893;BME280;4985;49.092;8.542;2023-04-15T04:07:41;98358.06;;;17.25;51.74
9893;BME280;4985;49.092;8.542;2023-04-15T04:10:08;98357.25;;;17.25;51.73
9893;BME280;4985;49.092;8.542;2023-04-15T04:12:35;98362.56;;;17.25;51.74
9893;BME280;4985;49.092;8.542;2023-04-15T04:15:01;98366.28;;;17.24;51.74
9893;BME280;4985;49.092;8.542;2023-04-15T04:17:29;98368.94;;;17.24;51.75
9893;BME280;4985;49.092;8.542;2023-04-15T04:19:56;98372.41;;;17.24;51.74
9893;BME280;4985;49.092;8.542;2023-04-15T04:22:22;98369.97;;;17.23;51.74
9893;BME280;4985;49.092;8.542;2023-04-15T04:24:49;98376.09;;;17.23;51.74
9893;BME280;4985;49.092;8.542;2023-04-15T04:27:16;98376.91;;;17.24;51.74
9893;BME280;4985;49.092;8.542;2023-04-15T04:29:42;98369.97;;;17.23;51.73
9893;BME280;4985;49.092;8.542;2023-04-15T04:32:11;98376.34;;;17.22;51.74
9893;BME280;4985;49.092;8.542;2023-04-15T04:34:39;98370.19;;;17.21;51.73
9893;BME280;4985;49.092;8.542;2023-04-15T04:37:06;98378.16;;;17.21;51.73
9893;BME280;4985;49.092;8.542;2023-04-15T04:39:32;98376.53;;;17.20;51.74
9893;BME280;4985;49.092;8.542;2023-04-15T04:41:59;98381.84;;;17.20;51.73
9893;BME280;4985;49.092;8.542;2023-04-15T04:44:26;98381.84;;;17.20;51.73
9893;BME280;4985;49.092;8.542;2023-04-15T04:46:53;98381.03;;;17.20;51.74
9893;BME280;4985;49.092;8.542;2023-04-15T04:49:19;98381.28;;;17.18;51.73
9893;BME280;4985;49.092;8.542;2023-04-15T04:51:47;98374.09;;;17.18;51.73
9893;BME280;4985;49.092;8.542;2023-04-15T04:54:14;98380.47;;;17.17;51.75
9893;BME280;4985;49.092;8.542;2023-04-15T04:56:41;98386.59;;;17.18;51.74
9893;BME280;4985;49.092;8.542;2023-04-15T04:59:07;98385.78;;;17.17;51.74
9893;BME280;4985;49.092;8.542;2023-04-15T05:01:34;98388.44;;;17.17;51.71
9893;BME280;4985;49.092;8.542;2023-04-15T05:04:01;98385.78;;;17.17;51.71
9893;BME280;4985;49.092;8.542;2023-04-15T05:06:29;98389.25;;;17.18;51.71
9893;BME280;4985;49.092;8.542;2023-04-15T05:08:57;98393.75;;;17.17;51.70
9893;BME280;4985;49.092;8.542;2023-04-15T05:11:23;98393.75;;;17.17;51.70
9893;BME280;4985;49.092;8.542;2023-04-15T05:13:50;98399.91;;;17.18;51.64
9893;BME280;4985;49.092;8.542;2023-04-15T05:16:17;98394.56;;;17.18;51.63
9893;BME280;4985;49.092;8.542;2023-04-15T05:18:44;98397.22;;;17.18;51.62
9893;BME280;4985;49.092;8.542;2023-04-15T05:21:10;98401.75;;;17.17;51.62
9893;BME280;4985;49.092;8.542;2023-04-15T05:23:37;98407.28;;;17.16;51.63
9893;BME280;4985;49.092;8.542;2023-04-15T05:26:05;98401.97;;;17.16;51.66
9893;BME280;4985;49.092;8.542;2023-04-15T05:28:32;98403.00;;;17.15;51.67
9893;BME280;4985;49.092;8.542;2023-04-15T05:30:58;98393.41;;;17.14;51.68
9893;BME280;4985;49.092;8.542;2023-04-15T05:33:25;98402.44;;;17.13;51.70
9893;BME280;4985;49.092;8.542;2023-04-15T05:35:52;98395.50;;;17.12;51.71
9893;BME280;4985;49.092;8.542;2023-04-15T05:38:18;98396.31;;;17.12;51.72
9893;BME280;4985;49.092;8.542;2023-04-15T05:40:45;98398.16;;;17.12;51.71
9893;BME280;4985;49.092;8.542;2023-04-15T05:43:13;98406.13;;;17.12;51.71
9893;BME280;4985;49.092;8.542;2023-04-15T05:45:39;98400.22;;;17.10;51.71
9893;BME280;4985;49.092;8.542;2023-04-15T05:48:06;98404.53;;;17.11;51.73
9893;BME280;4985;49.092;8.542;2023-04-15T05:50:33;98402.06;;;17.09;51.72
9893;BME280;4985;49.092;8.542;2023-04-15T05:53:00;98401.25;;;17.09;51.72
9893;BME280;4985;49.092;8.542;2023-04-15T05:55:26;98400.44;;;17.08;51.74
9893;BME280;4985;49.092;8.542;2023-04-15T05:57:53;98416.37;;;17.08;51.74
9893;BME280;4985;49.092;8.542;2023-04-15T06:00:21;98413.97;;;17.07;51.75
9893;BME280;4985;49.092;8.542;2023-04-15T06:02:47;98416.63;;;17.07;51.75
9893;BME280;4985;49.092;8.542;2023-04-15T06:05:15;98408.66;;;17.07;51.74
9893;BME280;4985;49.092;8.542;2023-04-15T06:07:42;98413.97;;;17.07;51.75
9893;BME280;4985;49.092;8.542;2023-04-15T06:10:09;98410.50;;;17.06;51.75
9893;BME280;4985;49.092;8.542;2023-04-15T06:12:36;98409.69;;;17.06;51.75
9893;BME280;4985;49.092;8.542;2023-04-15T06:15:03;98411.53;;;17.05;51.75
9893;BME280;4985;49.092;8.542;2023-04-15T06:17:32;98413.38;;;17.05;51.75
9893;BME280;4985;49.092;8.542;2023-04-15T06:19:58;98411.53;;;17.05;51.75
9893;BME280;4985;49.092;8.542;2023-04-15T06:22:25;98410.72;;;17.05;51.76
9893;BME280;4985;49.092;8.542;2023-04-15T06:24:51;98413.38;;;17.05;51.76
9893;BME280;4985;49.092;8.542;2023-04-15T06:27:18;98418.13;;;17.03;51.77
9893;BME280;4985;49.092;8.542;2023-04-15T06:29:45;98418.94;;;17.03;51.77
9893;BME280;4985;49.092;8.542;2023-04-15T06:32:11;98426.91;;;17.03;51.79
9893;BME280;4985;49.092;8.542;2023-04-15T06:34:39;98417.31;;;17.02;51.79
9893;BME280;4985;49.092;8.542;2023-04-15T06:37:06;98417.31;;;17.02;51.80
9893;BME280;4985;49.092;8.542;2023-04-15T06:39:34;98416.50;;;17.02;51.80
9893;BME280;4985;49.092;8.542;2023-04-15T06:42:01;98424.47;;;17.02;51.80
9893;BME280;4985;49.092;8.542;2023-04-15T06:44:28;98426.31;;;17.01;51.81
9893;BME280;4985;49.092;8.542;2023-04-15T06:46:55;98433.50;;;17.01;51.81
9893;BME280;4985;49.092;8.542;2023-04-15T06:49:22;98430.84;;;17.01;51.82
9893;BME280;4985;49.092;8.542;2023-04-15T06:51:50;98429.22;;;17.00;51.82
9893;BME280;4985;49.092;8.542;2023-04-15T06:54:17;98431.87;;;17.00;51.82
9893;BME280;4985;49.092;8.542;2023-04-15T06:56:43;98428.41;;;16.99;51.84
9893;BME280;4985;49.092;8.542;2023-04-15T06:59:10;98431.06;;;16.99;51.84
9893;BME280;4985;49.092;8.542;2023-04-15T07:01:37;98436.56;;;16.98;51.85
9893;BME280;4985;49.092;8.542;2023-04-15T07:04:04;98432.06;;;16.98;51.86
9893;BME280;4985;49.092;8.542;2023-04-15T07:06:30;98431.25;;;16.98;51.86
9893;BME280;4985;49.092;8.542;2023-04-15T07:08:59;98442.69;;;16.98;51.86
9893;BME280;4985;49.092;8.542;2023-04-15T07:11:26;98435.75;;;16.97;51.88
9893;BME280;4985;49.092;8.542;2023-04-15T07:13:52;98431.50;;;16.96;51.91
9893;BME280;4985;49.092;8.542;2023-04-15T07:16:19;98437.03;;;16.95;51.92
9893;BME280;4985;49.092;8.542;2023-04-15T07:18:46;98429.06;;;16.95;51.92
9893;BME280;4985;49.092;8.542;2023-04-15T07:21:12;98430.91;;;16.94;51.94
9893;BME280;4985;49.092;8.542;2023-04-15T07:23:39;98430.91;;;16.94;51.95
9893;BME280;4985;49.092;8.542;2023-04-15T07:26:07;98428.47;;;16.93;51.97
9893;BME280;4985;49.092;8.542;2023-04-15T07:28:34;98425.81;;;16.93;51.98
9893;BME280;4985;49.092;8.542;2023-04-15T07:31:00;98429.28;;;16.93;52.00
9893;BME280;4985;49.092;8.542;2023-04-15T07:33:27;98430.09;;;16.94;52.00
9893;BME280;4985;49.092;8.542;2023-04-15T07:35:53;98427.66;;;16.92;52.00
9893;BME280;4985;49.092;8.542;2023-04-15T07:38:20;98427.91;;;16.91;52.03
9893;BME280;4985;49.092;8.542;2023-04-15T07:40:47;98429.75;;;16.90;52.05
9893;BME280;4985;49.092;8.542;2023-04-15T07:43:15;98429.75;;;16.90;52.06
9893;BME280;4985;49.092;8.542;2023-04-15T07:45:43;98425.25;;;16.91;52.07
9893;BME280;4985;49.092;8.542;2023-04-15T07:48:09;98429.97;;;16.88;52.09
9893;BME280;4985;49.092;8.542;2023-04-15T07:50:36;98421.19;;;16.88;52.13
9893;BME280;4985;49.092;8.542;2023-04-15T07:53:02;98424.66;;;16.88;52.14
9893;BME280;4985;49.092;8.542;2023-04-15T07:55:29;98422.19;;;16.87;52.19
9893;BME280;4985;49.092;8.542;2023-04-15T07:57:56;98425.91;;;16.86;52.23
9893;BME280;4985;49.092;8.542;2023-04-15T08:00:24;98419.78;;;16.85;52.27
9893;BME280;4985;49.092;8.542;2023-04-15T08:02:51;98419.78;;;16.85;52.28
9893;BME280;4985;49.092;8.542;2023-04-15T08:05:18;98424.03;;;16.86;52.30
9893;BME280;4985;49.092;8.542;2023-04-15T08:07:45;98419.78;;;16.85;52.32
9893;BME280;4985;49.092;8.542;2023-04-15T08:10:11;98416.31;;;16.85;52.33
9893;BME280;4985;49.092;8.542;2023-04-15T08:12:38;98411.78;;;16.85;52.35
9893;BME280;4985;49.092;8.542;2023-04-15T08:15:05;98413.41;;;16.86;52.34
9893;BME280;4985;49.092;8.542;2023-04-15T08:17:34;98425.69;;;16.87;52.34
9893;BME280;4985;49.092;8.542;2023-04-15T08:20:02;98427.31;;;16.88;52.34
9893;BME280;4985;49.092;8.542;2023-04-15T08:22:30;98422.81;;;16.89;52.33
9893;BME280;4985;49.092;8.542;2023-04-15T08:24:56;98422.00;;;16.88;52.33
9893;BME280;4985;49.092;8.542;2023-04-15T08:27:23;98422.81;;;16.89;52.34
9893;BME280;4985;49.092;8.542;2023-04-15T08:29:50;98429.75;;;16.90;52.34
9893;BME280;4985;49.092;8.542;2023-04-15T08:32:16;98420.97;;;16.90;52.35
9893;BME280;4985;49.092;8.542;2023-04-15T08:34:44;98433.22;;;16.91;52.34
9893;BME280;4985;49.092;8.542;2023-04-15T08:37:11;98426.06;;;16.91;52.33
9893;BME280;4985;49.092;8.542;2023-04-15T08:39:37;98432.97;;;16.92;52.33
9893;BME280;4985;49.092;8.542;2023-04-15T08:42:11;98433.78;;;16.93;52.32
9893;BME280;4985;49.092;8.542;2023-04-15T08:44:38;98433.78;;;16.93;52.31
9893;BME280;4985;49.092;8.542;2023-04-15T08:47:07;98432.97;;;16.92;52.32
9893;BME280;4985;49.092;8.542;2023-04-15T08:49:38;98428.47;;;16.93;52.32
9893;BME280;4985;49.092;8.542;2023-04-15T08:52:07;98429.28;;;16.93;52.31
9893;BME280;4985;49.092;8.542;2023-04-15T08:54:34;98434.59;;;16.93;52.32
9893;BME280;4985;49.092;8.542;2023-04-15T08:57:02;98437.84;;;16.95;52.32
9893;BME280;4985;49.092;8.542;2023-04-15T08:59:29;98432.97;;;16.92;52.34
9893;BME280;4985;49.092;8.542;2023-04-15T09:01:56;98431.13;;;16.93;52.36
9893;BME280;4985;49.092;8.542;2023-04-15T09:04:23;98429.53;;;16.92;52.38
9893;BME280;4985;49.092;8.542;2023-04-15T09:06:49;98439.13;;;16.93;52.39
9893;BME280;4985;49.092;8.542;2023-04-15T09:09:18;98431.94;;;16.93;52.40
9893;BME280;4985;49.092;8.542;2023-04-15T09:11:44;98437.84;;;16.95;52.36
9893;BME280;4985;49.092;8.542;2023-04-15T09:14:11;98438.66;;;16.96;52.37
9893;BME280;4985;49.092;8.542;2023-04-15T09:16:57;98446.41;;;16.97;52.35
9893;BME280;4985;49.092;8.542;2023-04-15T09:19:24;98451.94;;;16.96;52.35
9893;BME280;4985;49.092;8.542;2023-04-15T09:21:51;98449.28;;;16.96;52.38
9893;BME280;4985;49.092;8.542;2023-04-15T09:24:20;98451.94;;;16.96;52.39
9893;BME280;4985;49.092;8.542;2023-04-15T09:26:47;98450.91;;;16.97;52.37
9893;BME280;4985;49.092;8.542;2023-04-15T09:29:17;98454.59;;;16.96;52.42
9893;BME280;4985;49.092;8.542;2023-04-15T09:31:43;98458.31;;;16.95;52.44
9893;BME280;4985;49.092;8.542;2023-04-15T09:34:10;98467.31;;;16.94;52.48
9893;BME280;4985;49.092;8.542;2023-04-15T09:36:51;98463.63;;;16.95;52.49
9893;BME280;4985;49.092;8.542;2023-04-15T09:39:20;98462.34;;;16.97;52.46
9893;BME280;4985;49.092;8.542;2023-04-15T09:41:46;98460.97;;;16.95;52.49
9893;BME280;4985;49.092;8.542;2023-04-15T09:44:23;98460.72;;;16.96;52.52
9893;BME280;4985;49.092;8.542;2023-04-15T09:46:49;98463.63;;;16.95;52.49
9893;BME280;4985;49.092;8.542;2023-04-15T09:49:16;98473.22;;;16.96;52.51
9893;BME280;4985;49.092;8.542;2023-04-15T09:51:43;98468.13;;;16.94;52.55
9893;BME280;4985;49.092;8.542;2023-04-15T09:54:10;98471.81;;;16.93;52.59
9893;BME280;4985;49.092;8.542;2023-04-15T09:56:38;98474.47;;;16.93;52.63
9893;BME280;4985;49.092;8.542;2023-04-15T09:59:06;98474.25;;;16.95;52.64
9893;BME280;4985;49.092;8.542;2023-04-15T10:01:33;98466.88;;;16.97;52.61
9893;BME280;4985;49.092;8.542;2023-04-15T10:04:02;98475.66;;;16.97;52.62
9893;BME280;4985;49.092;8.542;2023-04-15T10:06:29;98485.47;;;16.97;52.62
9893;BME280;4985;49.092;8.542;2023-04-15T10:08:56;98478.06;;;16.99;52.61
9893;BME280;4985;49.092;8.542;2023-04-15T10:11:26;98482.38;;;17.00;52.59
9893;BME280;4985;49.092;8.542;2023-04-15T10:13:55;98470.09;;;16.99;52.60
9893;BME280;4985;49.092;8.542;2023-04-15T10:16:26;98485.63;;;17.02;52.58
9893;BME280;4985;49.092;8.542;2023-04-15T10:18:54;98484.00;;;17.01;52.56
9893;BME280;4985;49.092;8.542;2023-04-15T10:21:23;98493.38;;;17.03;52.56
9893;BME280;4985;49.092;8.542;2023-04-15T10:23:50;98495.81;;;17.05;52.56
9893;BME280;4985;49.092;8.542;2023-04-15T10:26:17;98492.09;;;17.06;52.53
9893;BME280;4985;49.092;8.542;2023-04-15T10:28:44;98486.78;;;17.06;52.53
9893;BME280;4985;49.092;8.542;2023-04-15T10:31:14;98496.62;;;17.05;52.56
9893;BME280;4985;49.092;8.542;2023-04-15T10:33:43;98492.09;;;17.06;52.56
9893;BME280;4985;49.092;8.542;2023-04-15T10:36:10;98501.72;;;17.07;52.57
9893;BME280;4985;49.092;8.542;2023-04-15T10:38:38;98496.38;;;17.07;52.57
9893;BME280;4985;49.092;8.542;2023-04-15T10:41:13;98502.50;;;17.07;52.57
9893;BME280;4985;49.092;8.542;2023-04-15T10:43:44;98501.34;;;17.03;52.61
9893;BME280;4985;49.092;8.542;2023-04-15T10:46:11;98508.88;;;17.06;52.64
9893;BME280;4985;49.092;8.542;2023-04-15T10:48:46;98509.69;;;17.07;52.66
9893;BME280;4985;49.092;8.542;2023-04-15T10:51:12;98507.03;;;17.07;52.69
9893;BME280;4985;49.092;8.542;2023-04-15T10:53:40;98515.00;;;17.07;52.70
9893;BME280;4985;49.092;8.542;2023-04-15T10:56:09;98514.78;;;17.08;52.69
9893;BME280;4985;49.092;8.542;2023-04-15T10:58:40;98515.37;;;17.10;52.66
9893;BME280;4985;49.092;8.542;2023-04-15T11:01:07;98525.56;;;17.13;52.62
9893;BME280;4985;49.092;8.542;2023-04-15T11:03:36;98521.06;;;17.14;52.58
9893;BME280;4985;49.092;8.542;2023-04-15T11:06:05;98523.50;;;17.15;52.57
9893;BME280;4985;49.092;8.542;2023-04-15T11:08:54;98521.66;;;17.16;52.56
9893;BME280;4985;49.092;8.542;2023-04-15T11:11:25;98519.56;;;17.18;52.53
9893;BME280;4985;49.092;8.542;2023-04-15T11:14:14;98527.31;;;17.20;52.50
9893;BME280;4985;49.092;8.542;2023-04-15T11:16:41;98516.69;;;17.20;52.50
9893;BME280;4985;49.092;8.542;2023-04-15T11:19:09;98522.00;;;17.20;52.51
9893;BME280;4985;49.092;8.542;2023-04-15T11:21:37;98527.09;;;17.21;52.52
9893;BME280;4985;49.092;8.542;2023-04-15T11:24:04;98529.75;;;17.21;52.48
9893;BME280;4985;49.092;8.542;2023-04-15T11:26:30;98526.88;;;17.23;52.46
9893;BME280;4985;49.092;8.542;2023-04-15T11:28:57;98535.69;;;17.23;52.45
9893;BME280;4985;49.092;8.542;2023-04-15T11:31:27;98525.62;;;17.25;52.42
9893;BME280;4985;49.092;8.542;2023-04-15T11:33:55;98528.28;;;17.25;52.42
9893;BME280;4985;49.092;8.542;2023-04-15T11:36:24;98538.94;;;17.25;52.43
9893;BME280;4985;49.092;8.542;2023-04-15T11:38:54;98522.37;;;17.23;52.47
9893;BME280;4985;49.092;8.542;2023-04-15T11:41:21;98532.41;;;17.21;52.52
9893;BME280;4985;49.092;8.542;2023-04-15T11:43:48;98535.06;;;17.21;52.57
9893;BME280;4985;49.092;8.542;2023-04-15T11:46:15;98534.25;;;17.21;52.59
9893;BME280;4985;49.092;8.542;2023-04-15T11:48:43;98530.13;;;17.25;52.57
9893;BME280;4985;49.092;8.542;2023-04-15T11:51:10;98529.31;;;17.24;52.54
9893;BME280;4985;49.092;8.542;2023-04-15T11:53:39;98535.22;;;17.26;52.55
9893;BME280;4985;49.092;8.542;2023-04-15T11:56:08;98534.41;;;17.26;52.54
9893;BME280;4985;49.092;8.542;2023-04-15T11:58:36;98536.25;;;17.25;52.57
9893;BME280;4985;49.092;8.542;2023-04-15T12:01:04;98533.59;;;17.25;52.61
9893;BME280;4985;49.092;8.542;2023-04-15T12:03:36;98533.59;;;17.25;52.65
9893;BME280;4985;49.092;8.542;2023-04-15T12:06:04;98538.69;;;17.27;52.62
9893;BME280;4985;49.092;8.542;2023-04-15T12:08:57;98545.87;;;17.26;52.61
9893;BME280;4985;49.092;8.542;2023-04-15T12:11:34;98542.63;;;17.24;52.67
9893;BME280;4985;49.092;8.542;2023-04-15T12:14:07;98554.88;;;17.25;52.72
9893;BME280;4985;49.092;8.542;2023-04-15T12:16:36;98550.59;;;17.24;52.68
9893;BME280;4985;49.092;8.542;2023-04-15T12:19:08;98552.94;;;17.32;52.63
9893;BME280;4985;49.092;8.542;2023-04-15T12:21:36;98556.44;;;17.33;52.56
9893;BME280;4985;49.092;8.542;2023-04-15T12:24:05;98569.94;;;17.31;52.57
9893;BME280;4985;49.092;8.542;2023-04-15T12:26:35;98561.94;;;17.31;52.59
9893;BME280;4985;49.092;8.542;2023-04-15T12:29:04;98575.06;;;17.33;52.58
9893;BME280;4985;49.092;8.542;2023-04-15T12:31:31;98573.78;;;17.35;52.54
9893;BME280;4985;49.092;8.542;2023-04-15T12:33:58;98583.37;;;17.36;52.53
9893;BME280;4985;49.092;8.542;2023-04-15T12:36:25;98595.19;;;17.40;52.48
9893;BME280;4985;49.092;8.542;2023-04-15T12:38:52;98596.81;;;17.41;52.42
9893;BME280;4985;49.092;8.542;2023-04-15T12:41:19;98601.72;;;17.44;52.36
9893;BME280;4985;49.092;8.542;2023-04-15T12:43:47;98609.47;;;17.46;52.31
9893;BME280;4985;49.092;8.542;2023-04-15T12:46:13;98599.63;;;17.46;52.29
9893;BME280;4985;49.092;8.542;2023-04-15T12:48:41;98615.59;;;17.46;52.30
9893;BME280;4985;49.092;8.542;2023-04-15T12:51:07;98610.50;;;17.45;52.27
9893;BME280;4985;49.092;8.542;2023-04-15T12:53:34;98618.84;;;17.49;52.26
9893;BME280;4985;49.092;8.542;2023-04-15T12:56:01;98624.16;;;17.49;52.25
9893;BME280;4985;49.092;8.542;2023-04-15T12:58:28;98618.84;;;17.49;52.25
9893;BME280;4985;49.092;8.542;2023-04-15T13:00:56;98626.59;;;17.50;52.25
9893;BME280;4985;49.092;8.542;2023-04-15T13:03:22;98632.72;;;17.51;52.24
9893;BME280;4985;49.092;8.542;2023-04-15T13:05:49;98628.22;;;17.51;52.24
9893;BME280;4985;49.092;8.542;2023-04-15T13:08:15;98634.34;;;17.52;52.23
9893;BME280;4985;49.092;8.542;2023-04-15T13:10:42;98635.97;;;17.53;52.21
9893;BME280;4985;49.092;8.542;2023-04-15T13:13:09;98635.16;;;17.52;52.19
9893;BME280;4985;49.092;8.542;2023-04-15T13:15:35;98642.91;;;17.54;52.20
9893;BME280;4985;49.092;8.542;2023-04-15T13:18:04;98631.47;;;17.53;52.19
9893;BME280;4985;49.092;8.542;2023-04-15T13:20:30;98631.47;;;17.53;52.21
9893;BME280;4985;49.092;8.542;2023-04-15T13:22:57;98641.31;;;17.53;52.22
9893;BME280;4985;49.092;8.542;2023-04-15T13:25:23;98641.31;;;17.53;52.22